Update: 28-May-2022 10:54Z
38°C
WEATHER FORECAST DUBAI AIRPORT
 
Saturday, May 28, 2022 (10:55 UTC) 10
Dubai International Airport
Last Updated: 28-May-2022 (10:54Z)
Wind Dir/Speed: WNW at 10 kt
Temperature:
Rel. Humidity:
Pressure: 1001.0 hPa
Visibility: /// m
  • METAR OMDB 281030Z 32009KT CAVOK 38/17 Q1001 NOSIG
DUBAI AIRPORT 5 DAY IMPACT:
HIGH:
°C
LOW:
°C
HIGH:
°C
LOW:
°C
HIGH:
°C
LOW:
°C
HIGH:
°C
LOW:
°C
HIGH:
°C
LOW:
°C

DUBAI AIRPORT WEATHER FORECAST FOR 30 HOUR:
DUBAI TAF:
TAF OMDB 280500Z 2806/2912 23008KT CAVOK
BECMG 2806/2808 29013KT
BECMG 2816/2818 18005KT
BECMG 2908/2910 30012KT=
VALID FROM:
2022-05-28 06:00Z
VALID TILL:
2022-05-29 12:00Z
SURFACE WIND:
SW'LY 08KT

BECOMING WNW'LY 13KT FROM 0600Z-0800Z TODAY

BECOMING S'LY 05KT FROM 1600Z-1800Z TODAY

BECOMING NW'LY 12KT FROM 0800Z-1000Z SUNDAY.
VISIBILITY:
10-12 KM.
WEATHER:
FINE.
CLOUD:
NIL SIGNIFICANT.
TEMPERATURE:
MAX TEMPERATURE 38°C AROUND 0900Z TODAY

MIN TEMPERATURE 27°C AROUND 0200Z SUNDAY

MAX TEMPERATURE 41°C AROUND 0900Z SUNDAY.
HUMIDITY:
MIN HUMIDITY 20% AROUND 0900Z TODAY

MAX HUMIDITY 70% AROUND 0200Z SUNDAY

MIN HUMIDITY 15% AROUND 0900Z SUNDAY.
WIND SHEAR:
NIL SIGNIFICANT.
TEMPERATURE INVERSION:
RISK OF AN 08°C SURFACE TEMPERATURE INVERSION BETWEEN 0000Z-0330Z SUNDAY.
COMMENTS:
NIL.
28/05/2022